sensor_id;sensor_type;location;lat;lon;timestamp;P1;durP1;ratioP1;P2;durP2;ratioP2
5961;SDS011;3007;50.770;0.250;2022-11-20T00:01:09;6.10;;;1.57;;
5961;SDS011;3007;50.770;0.250;2022-11-20T00:03:37;4.53;;;1.13;;
5961;SDS011;3007;50.770;0.250;2022-11-20T00:06:05;3.97;;;1.40;;
5961;SDS011;3007;50.770;0.250;2022-11-20T00:08:34;6.40;;;1.20;;
5961;SDS011;3007;50.770;0.250;2022-11-20T00:11:02;5.00;;;1.20;;
5961;SDS011;3007;50.770;0.250;2022-11-20T00:13:30;2.03;;;0.97;;
5961;SDS011;3007;50.770;0.250;2022-11-20T00:15:57;3.67;;;1.33;;
5961;SDS011;3007;50.770;0.250;2022-11-20T00:18:25;1.87;;;1.10;;
5961;SDS011;3007;50.770;0.250;2022-11-20T00:20:52;3.93;;;1.60;;
5961;SDS011;3007;50.770;0.250;2022-11-20T00:23:20;4.93;;;1.50;;
5961;SDS011;3007;50.770;0.250;2022-11-20T00:25:46;7.47;;;1.77;;
5961;SDS011;3007;50.770;0.250;2022-11-20T00:28:13;5.10;;;1.50;;
5961;SDS011;3007;50.770;0.250;2022-11-20T00:30:40;2.20;;;1.30;;
5961;SDS011;3007;50.770;0.250;2022-11-20T00:33:07;5.50;;;1.43;;
5961;SDS011;3007;50.770;0.250;2022-11-20T00:35:35;4.23;;;1.40;;
5961;SDS011;3007;50.770;0.250;2022-11-20T00:38:02;6.87;;;1.40;;
5961;SDS011;3007;50.770;0.250;2022-11-20T00:40:29;3.27;;;1.10;;
5961;SDS011;3007;50.770;0.250;2022-11-20T00:42:55;4.80;;;1.47;;
5961;SDS011;3007;50.770;0.250;2022-11-20T00:45:22;4.13;;;1.33;;
5961;SDS011;3007;50.770;0.250;2022-11-20T00:47:49;4.20;;;1.40;;
5961;SDS011;3007;50.770;0.250;2022-11-20T00:50:16;6.80;;;1.40;;
5961;SDS011;3007;50.770;0.250;2022-11-20T00:52:44;4.93;;;1.60;;
5961;SDS011;3007;50.770;0.250;2022-11-20T00:55:11;7.97;;;1.50;;
5961;SDS011;3007;50.770;0.250;2022-11-20T00:57:38;5.37;;;1.20;;
5961;SDS011;3007;50.770;0.250;2022-11-20T01:00:05;3.87;;;1.30;;
5961;SDS011;3007;50.770;0.250;2022-11-20T01:02:32;2.83;;;1.20;;
5961;SDS011;3007;50.770;0.250;2022-11-20T01:04:59;4.80;;;1.07;;
5961;SDS011;3007;50.770;0.250;2022-11-20T01:07:26;1.73;;;0.90;;
5961;SDS011;3007;50.770;0.250;2022-11-20T01:09:54;3.90;;;1.03;;
5961;SDS011;3007;50.770;0.250;2022-11-20T01:12:23;3.13;;;1.20;;
5961;SDS011;3007;50.770;0.250;2022-11-20T01:14:50;2.50;;;1.13;;
5961;SDS011;3007;50.770;0.250;2022-11-20T01:17:17;9.43;;;2.00;;
5961;SDS011;3007;50.770;0.250;2022-11-20T01:19:43;1.67;;;1.20;;
5961;SDS011;3007;50.770;0.250;2022-11-20T01:22:10;2.53;;;1.03;;
5961;SDS011;3007;50.770;0.250;2022-11-20T01:24:37;6.83;;;1.50;;
5961;SDS011;3007;50.770;0.250;2022-11-20T01:27:05;1.53;;;0.90;;
5961;SDS011;3007;50.770;0.250;2022-11-20T01:29:32;4.73;;;1.50;;
5961;SDS011;3007;50.770;0.250;2022-11-20T01:31:59;1.83;;;1.20;;
5961;SDS011;3007;50.770;0.250;2022-11-20T01:34:26;6.70;;;1.60;;
5961;SDS011;3007;50.770;0.250;2022-11-20T01:36:52;3.33;;;1.50;;
5961;SDS011;3007;50.770;0.250;2022-11-20T01:39:20;4.00;;;1.40;;
5961;SDS011;3007;50.770;0.250;2022-11-20T01:41:48;2.40;;;1.10;;
5961;SDS011;3007;50.770;0.250;2022-11-20T01:44:51;5.27;;;1.27;;
5961;SDS011;3007;50.770;0.250;2022-11-20T01:47:21;7.33;;;1.57;;
5961;SDS011;3007;50.770;0.250;2022-11-20T01:49:54;6.73;;;1.73;;
5961;SDS011;3007;50.770;0.250;2022-11-20T01:52:24;2.30;;;1.30;;
5961;SDS011;3007;50.770;0.250;2022-11-20T01:54:58;7.80;;;1.23;;
5961;SDS011;3007;50.770;0.250;2022-11-20T01:57:29;2.77;;;0.97;;
5961;SDS011;3007;50.770;0.250;2022-11-20T02:00:03;4.97;;;1.30;;
5961;SDS011;3007;50.770;0.250;2022-11-20T02:02:32;4.93;;;1.27;;
5961;SDS011;3007;50.770;0.250;2022-11-20T02:05:00;3.63;;;1.20;;
5961;SDS011;3007;50.770;0.250;2022-11-20T02:07:35;3.17;;;1.37;;
5961;SDS011;3007;50.770;0.250;2022-11-20T02:10:03;5.63;;;1.37;;
5961;SDS011;3007;50.770;0.250;2022-11-20T02:12:30;10.73;;;2.27;;
5961;SDS011;3007;50.770;0.250;2022-11-20T02:15:16;5.83;;;1.50;;
5961;SDS011;3007;50.770;0.250;2022-11-20T02:17:43;4.50;;;1.53;;
5961;SDS011;3007;50.770;0.250;2022-11-20T02:20:10;5.93;;;1.60;;
5961;SDS011;3007;50.770;0.250;2022-11-20T02:22:38;3.20;;;1.80;;
5961;SDS011;3007;50.770;0.250;2022-11-20T02:25:13;4.40;;;1.03;;
5961;SDS011;3007;50.770;0.250;2022-11-20T02:27:41;5.60;;;1.10;;
5961;SDS011;3007;50.770;0.250;2022-11-20T02:30:08;6.23;;;1.60;;
5961;SDS011;3007;50.770;0.250;2022-11-20T02:32:37;4.53;;;1.07;;
5961;SDS011;3007;50.770;0.250;2022-11-20T02:35:07;3.90;;;1.20;;
5961;SDS011;3007;50.770;0.250;2022-11-20T02:37:36;2.50;;;0.90;;
5961;SDS011;3007;50.770;0.250;2022-11-20T02:40:05;0.67;;;0.50;;
5961;SDS011;3007;50.770;0.250;2022-11-20T02:42:34;1.13;;;0.47;;
5961;SDS011;3007;50.770;0.250;2022-11-20T02:45:01;0.97;;;0.60;;
5961;SDS011;3007;50.770;0.250;2022-11-20T02:47:28;5.13;;;0.67;;
5961;SDS011;3007;50.770;0.250;2022-11-20T02:49:55;2.20;;;1.10;;
5961;SDS011;3007;50.770;0.250;2022-11-20T02:52:22;3.57;;;0.60;;
5961;SDS011;3007;50.770;0.250;2022-11-20T02:54:49;0.70;;;0.43;;
5961;SDS011;3007;50.770;0.250;2022-11-20T02:57:16;2.50;;;0.40;;
5961;SDS011;3007;50.770;0.250;2022-11-20T02:59:45;1.03;;;0.43;;
5961;SDS011;3007;50.770;0.250;2022-11-20T03:02:11;2.37;;;0.80;;
5961;SDS011;3007;50.770;0.250;2022-11-20T03:04:38;1.63;;;0.53;;
5961;SDS011;3007;50.770;0.250;2022-11-20T03:07:05;3.53;;;0.57;;
5961;SDS011;3007;50.770;0.250;2022-11-20T03:09:34;3.10;;;0.83;;
5961;SDS011;3007;50.770;0.250;2022-11-20T03:12:01;0.93;;;0.53;;
5961;SDS011;3007;50.770;0.250;2022-11-20T03:14:28;0.70;;;0.57;;
5961;SDS011;3007;50.770;0.250;2022-11-20T03:16:56;1.67;;;0.67;;
5961;SDS011;3007;50.770;0.250;2022-11-20T03:19:23;1.60;;;0.60;;
5961;SDS011;3007;50.770;0.250;2022-11-20T03:21:50;2.63;;;0.60;;
5961;SDS011;3007;50.770;0.250;2022-11-20T03:24:17;3.90;;;0.70;;
5961;SDS011;3007;50.770;0.250;2022-11-20T03:26:44;3.10;;;0.70;;
5961;SDS011;3007;50.770;0.250;2022-11-20T03:29:11;0.80;;;0.50;;
5961;SDS011;3007;50.770;0.250;2022-11-20T03:31:38;4.77;;;0.80;;
5961;SDS011;3007;50.770;0.250;2022-11-20T03:34:08;2.00;;;0.60;;
5961;SDS011;3007;50.770;0.250;2022-11-20T03:36:37;1.23;;;0.67;;
5961;SDS011;3007;50.770;0.250;2022-11-20T03:39:04;4.27;;;0.80;;
5961;SDS011;3007;50.770;0.250;2022-11-20T03:41:35;5.27;;;0.83;;
5961;SDS011;3007;50.770;0.250;2022-11-20T03:44:04;7.43;;;1.10;;
5961;SDS011;3007;50.770;0.250;2022-11-20T03:46:33;3.17;;;0.80;;
5961;SDS011;3007;50.770;0.250;2022-11-20T03:49:00;5.77;;;0.97;;
5961;SDS011;3007;50.770;0.250;2022-11-20T03:51:28;3.67;;;1.00;;
5961;SDS011;3007;50.770;0.250;2022-11-20T03:53:57;3.67;;;0.60;;
5961;SDS011;3007;50.770;0.250;2022-11-20T03:56:25;2.60;;;0.90;;
5961;SDS011;3007;50.770;0.250;2022-11-20T03:58:54;2.83;;;0.87;;
5961;SDS011;3007;50.770;0.250;2022-11-20T04:01:22;0.73;;;0.60;;
5961;SDS011;3007;50.770;0.250;2022-11-20T04:03:51;10.60;;;1.30;;
5961;SDS011;3007;50.770;0.250;2022-11-20T04:06:20;2.40;;;0.63;;
5961;SDS011;3007;50.770;0.250;2022-11-20T04:08:50;6.77;;;1.10;;
5961;SDS011;3007;50.770;0.250;2022-11-20T04:11:20;3.10;;;0.80;;
5961;SDS011;3007;50.770;0.250;2022-11-20T04:13:48;1.63;;;0.63;;
5961;SDS011;3007;50.770;0.250;2022-11-20T04:16:16;4.00;;;0.97;;
5961;SDS011;3007;50.770;0.250;2022-11-20T04:18:43;3.43;;;0.80;;
5961;SDS011;3007;50.770;0.250;2022-11-20T04:21:11;5.93;;;0.90;;
5961;SDS011;3007;50.770;0.250;2022-11-20T04:23:38;1.50;;;0.80;;
5961;SDS011;3007;50.770;0.250;2022-11-20T04:26:07;3.90;;;0.83;;
5961;SDS011;3007;50.770;0.250;2022-11-20T04:28:34;3.67;;;0.83;;
5961;SDS011;3007;50.770;0.250;2022-11-20T04:31:02;4.40;;;0.87;;
5961;SDS011;3007;50.770;0.250;2022-11-20T04:33:30;5.93;;;0.90;;
5961;SDS011;3007;50.770;0.250;2022-11-20T04:35:59;2.50;;;0.80;;
5961;SDS011;3007;50.770;0.250;2022-11-20T04:38:28;5.53;;;0.70;;
5961;SDS011;3007;50.770;0.250;2022-11-20T04:40:56;3.37;;;1.00;;
5961;SDS011;3007;50.770;0.250;2022-11-20T04:43:25;2.97;;;0.83;;
5961;SDS011;3007;50.770;0.250;2022-11-20T04:45:52;4.27;;;0.90;;
5961;SDS011;3007;50.770;0.250;2022-11-20T04:48:19;4.93;;;0.90;;
5961;SDS011;3007;50.770;0.250;2022-11-20T04:50:46;3.30;;;0.87;;
5961;SDS011;3007;50.770;0.250;2022-11-20T04:53:13;6.13;;;0.60;;
5961;SDS011;3007;50.770;0.250;2022-11-20T04:55:40;5.20;;;0.67;;
5961;SDS011;3007;50.770;0.250;2022-11-20T04:58:07;4.63;;;0.70;;
5961;SDS011;3007;50.770;0.250;2022-11-20T05:00:35;2.90;;;0.70;;
5961;SDS011;3007;50.770;0.250;2022-11-20T05:03:02;2.93;;;1.10;;
5961;SDS011;3007;50.770;0.250;2022-11-20T05:05:29;4.80;;;0.80;;
5961;SDS011;3007;50.770;0.250;2022-11-20T05:07:57;4.40;;;1.20;;
5961;SDS011;3007;50.770;0.250;2022-11-20T05:10:24;3.00;;;1.00;;
5961;SDS011;3007;50.770;0.250;2022-11-20T05:12:51;2.47;;;0.87;;
5961;SDS011;3007;50.770;0.250;2022-11-20T05:15:18;8.13;;;0.83;;
5961;SDS011;3007;50.770;0.250;2022-11-20T05:17:48;3.03;;;1.00;;
5961;SDS011;3007;50.770;0.250;2022-11-20T05:20:15;2.37;;;0.90;;
5961;SDS011;3007;50.770;0.250;2022-11-20T05:22:43;4.83;;;1.50;;
5961;SDS011;3007;50.770;0.250;2022-11-20T05:25:10;1.90;;;1.00;;
5961;SDS011;3007;50.770;0.250;2022-11-20T05:27:37;7.27;;;1.20;;
5961;SDS011;3007;50.770;0.250;2022-11-20T05:30:04;2.83;;;1.17;;
5961;SDS011;3007;50.770;0.250;2022-11-20T05:32:32;4.40;;;1.20;;
5961;SDS011;3007;50.770;0.250;2022-11-20T05:35:01;3.93;;;0.80;;
5961;SDS011;3007;50.770;0.250;2022-11-20T05:37:27;3.67;;;1.23;;
5961;SDS011;3007;50.770;0.250;2022-11-20T05:39:54;5.10;;;1.20;;
5961;SDS011;3007;50.770;0.250;2022-11-20T05:42:21;6.60;;;0.80;;
5961;SDS011;3007;50.770;0.250;2022-11-20T05:44:57;3.80;;;1.10;;
5961;SDS011;3007;50.770;0.250;2022-11-20T05:47:24;3.33;;;1.33;;
5961;SDS011;3007;50.770;0.250;2022-11-20T05:49:51;4.23;;;0.90;;
5961;SDS011;3007;50.770;0.250;2022-11-20T05:52:19;8.90;;;1.83;;
5961;SDS011;3007;50.770;0.250;2022-11-20T05:54:46;8.13;;;1.27;;
5961;SDS011;3007;50.770;0.250;2022-11-20T05:57:13;4.43;;;1.50;;
5961;SDS011;3007;50.770;0.250;2022-11-20T05:59:40;4.83;;;1.07;;
5961;SDS011;3007;50.770;0.250;2022-11-20T06:02:07;2.67;;;0.80;;
5961;SDS011;3007;50.770;0.250;2022-11-20T06:04:34;4.13;;;1.03;;
5961;SDS011;3007;50.770;0.250;2022-11-20T06:07:01;2.73;;;0.90;;
5961;SDS011;3007;50.770;0.250;2022-11-20T06:09:29;2.53;;;0.70;;
5961;SDS011;3007;50.770;0.250;2022-11-20T06:11:56;6.27;;;0.90;;
5961;SDS011;3007;50.770;0.250;2022-11-20T06:14:23;3.30;;;0.90;;
5961;SDS011;3007;50.770;0.250;2022-11-20T06:16:50;4.70;;;0.70;;
5961;SDS011;3007;50.770;0.250;2022-11-20T06:19:17;4.77;;;0.80;;
5961;SDS011;3007;50.770;0.250;2022-11-20T06:21:43;3.93;;;0.90;;
5961;SDS011;3007;50.770;0.250;2022-11-20T06:24:10;5.97;;;1.50;;
5961;SDS011;3007;50.770;0.250;2022-11-20T06:26:39;3.50;;;1.17;;
5961;SDS011;3007;50.770;0.250;2022-11-20T06:29:05;4.33;;;1.13;;
5961;SDS011;3007;50.770;0.250;2022-11-20T06:31:32;2.30;;;0.90;;
5961;SDS011;3007;50.770;0.250;2022-11-20T06:34:02;4.73;;;1.10;;
5961;SDS011;3007;50.770;0.250;2022-11-20T06:36:30;4.03;;;1.00;;
5961;SDS011;3007;50.770;0.250;2022-11-20T06:38:57;4.20;;;1.00;;
5961;SDS011;3007;50.770;0.250;2022-11-20T06:41:24;2.93;;;1.13;;
5961;SDS011;3007;50.770;0.250;2022-11-20T06:43:52;4.50;;;0.90;;
5961;SDS011;3007;50.770;0.250;2022-11-20T06:46:19;10.07;;;5.87;;
5961;SDS011;3007;50.770;0.250;2022-11-20T06:48:47;5.33;;;2.00;;
5961;SDS011;3007;50.770;0.250;2022-11-20T06:51:14;11.23;;;4.97;;
5961;SDS011;3007;50.770;0.250;2022-11-20T06:53:42;4.97;;;2.10;;
5961;SDS011;3007;50.770;0.250;2022-11-20T06:56:08;2.73;;;0.80;;
5961;SDS011;3007;50.770;0.250;2022-11-20T06:58:35;1.20;;;1.10;;
5961;SDS011;3007;50.770;0.250;2022-11-20T07:01:04;6.00;;;2.20;;
5961;SDS011;3007;50.770;0.250;2022-11-20T07:03:33;4.70;;;0.90;;
5961;SDS011;3007;50.770;0.250;2022-11-20T07:06:00;3.33;;;1.60;;
5961;SDS011;3007;50.770;0.250;2022-11-20T07:08:28;4.37;;;2.00;;
5961;SDS011;3007;50.770;0.250;2022-11-20T07:10:56;2.57;;;1.00;;
5961;SDS011;3007;50.770;0.250;2022-11-20T07:13:24;3.00;;;1.60;;
5961;SDS011;3007;50.770;0.250;2022-11-20T07:15:51;3.40;;;1.00;;
5961;SDS011;3007;50.770;0.250;2022-11-20T07:18:19;5.13;;;2.63;;
5961;SDS011;3007;50.770;0.250;2022-11-20T07:20:46;3.87;;;1.37;;
5961;SDS011;3007;50.770;0.250;2022-11-20T07:23:13;2.67;;;1.10;;
5961;SDS011;3007;50.770;0.250;2022-11-20T07:25:40;1.57;;;0.93;;
5961;SDS011;3007;50.770;0.250;2022-11-20T07:28:07;1.73;;;1.20;;
5961;SDS011;3007;50.770;0.250;2022-11-20T07:30:35;5.20;;;1.07;;
5961;SDS011;3007;50.770;0.250;2022-11-20T07:33:02;3.50;;;1.43;;
5961;SDS011;3007;50.770;0.250;2022-11-20T07:35:30;5.30;;;1.20;;
5961;SDS011;3007;50.770;0.250;2022-11-20T07:37:57;8.07;;;1.43;;
5961;SDS011;3007;50.770;0.250;2022-11-20T07:40:24;8.03;;;1.30;;
5961;SDS011;3007;50.770;0.250;2022-11-20T07:42:52;3.93;;;1.20;;
5961;SDS011;3007;50.770;0.250;2022-11-20T07:45:19;6.20;;;1.10;;
5961;SDS011;3007;50.770;0.250;2022-11-20T07:47:48;8.60;;;1.50;;
5961;SDS011;3007;50.770;0.250;2022-11-20T07:50:16;5.97;;;1.53;;
5961;SDS011;3007;50.770;0.250;2022-11-20T07:52:44;3.60;;;1.37;;
5961;SDS011;3007;50.770;0.250;2022-11-20T07:55:11;12.73;;;1.87;;
5961;SDS011;3007;50.770;0.250;2022-11-20T07:57:39;10.37;;;1.77;;
5961;SDS011;3007;50.770;0.250;2022-11-20T08:00:06;5.90;;;1.00;;
5961;SDS011;3007;50.770;0.250;2022-11-20T08:02:36;9.27;;;1.10;;
5961;SDS011;3007;50.770;0.250;2022-11-20T08:05:04;9.20;;;0.93;;
5961;SDS011;3007;50.770;0.250;2022-11-20T08:07:34;4.73;;;0.80;;
5961;SDS011;3007;50.770;0.250;2022-11-20T08:10:04;6.30;;;1.20;;
5961;SDS011;3007;50.770;0.250;2022-11-20T08:12:31;9.73;;;1.43;;
5961;SDS011;3007;50.770;0.250;2022-11-20T08:15:17;6.93;;;1.17;;
5961;SDS011;3007;50.770;0.250;2022-11-20T08:17:44;9.03;;;1.70;;
5961;SDS011;3007;50.770;0.250;2022-11-20T08:20:11;3.83;;;2.10;;
5961;SDS011;3007;50.770;0.250;2022-11-20T08:22:38;7.57;;;1.80;;
5961;SDS011;3007;50.770;0.250;2022-11-20T08:25:07;9.67;;;1.33;;
5961;SDS011;3007;50.770;0.250;2022-11-20T08:27:34;7.27;;;1.87;;
5961;SDS011;3007;50.770;0.250;2022-11-20T08:30:01;7.40;;;1.20;;
5961;SDS011;3007;50.770;0.250;2022-11-20T08:32:28;5.30;;;1.30;;
5961;SDS011;3007;50.770;0.250;2022-11-20T08:34:54;8.80;;;1.23;;
5961;SDS011;3007;50.770;0.250;2022-11-20T08:37:21;5.27;;;1.03;;
5961;SDS011;3007;50.770;0.250;2022-11-20T08:39:48;8.27;;;1.30;;
5961;SDS011;3007;50.770;0.250;2022-11-20T08:42:16;7.50;;;0.90;;
5961;SDS011;3007;50.770;0.250;2022-11-20T08:44:46;6.63;;;1.70;;
5961;SDS011;3007;50.770;0.250;2022-11-20T08:47:13;7.33;;;1.63;;
5961;SDS011;3007;50.770;0.250;2022-11-20T08:49:40;7.20;;;1.13;;
5961;SDS011;3007;50.770;0.250;2022-11-20T08:52:06;5.37;;;0.90;;
5961;SDS011;3007;50.770;0.250;2022-11-20T08:54:33;4.10;;;0.70;;
5961;SDS011;3007;50.770;0.250;2022-11-20T08:57:00;1.00;;;0.60;;
5961;SDS011;3007;50.770;0.250;2022-11-20T08:59:28;1.23;;;0.50;;
5961;SDS011;3007;50.770;0.250;2022-11-20T09:01:56;0.20;;;0.20;;
5961;SDS011;3007;50.770;0.250;2022-11-20T09:04:23;0.70;;;0.33;;
5961;SDS011;3007;50.770;0.250;2022-11-20T09:06:50;1.10;;;0.37;;
5961;SDS011;3007;50.770;0.250;2022-11-20T09:09:17;0.20;;;0.20;;
5961;SDS011;3007;50.770;0.250;2022-11-20T09:11:44;0.30;;;0.30;;
5961;SDS011;3007;50.770;0.250;2022-11-20T09:14:11;1.00;;;0.40;;
5961;SDS011;3007;50.770;0.250;2022-11-20T09:16:39;1.07;;;0.60;;
5961;SDS011;3007;50.770;0.250;2022-11-20T09:19:06;0.40;;;0.40;;
5961;SDS011;3007;50.770;0.250;2022-11-20T09:21:33;2.53;;;0.83;;
5961;SDS011;3007;50.770;0.250;2022-11-20T09:23:59;0.57;;;0.37;;
5961;SDS011;3007;50.770;0.250;2022-11-20T09:26:26;1.33;;;0.60;;
5961;SDS011;3007;50.770;0.250;2022-11-20T09:28:53;4.50;;;0.93;;
5961;SDS011;3007;50.770;0.250;2022-11-20T09:31:21;2.30;;;0.90;;
5961;SDS011;3007;50.770;0.250;2022-11-20T09:33:51;4.67;;;0.80;;
5961;SDS011;3007;50.770;0.250;2022-11-20T09:36:18;2.27;;;1.00;;
5961;SDS011;3007;50.770;0.250;2022-11-20T09:38:45;4.00;;;1.23;;
5961;SDS011;3007;50.770;0.250;2022-11-20T09:41:18;4.00;;;1.00;;
5961;SDS011;3007;50.770;0.250;2022-11-20T09:44:01;5.70;;;1.20;;
5961;SDS011;3007;50.770;0.250;2022-11-20T09:46:34;9.03;;;1.50;;
5961;SDS011;3007;50.770;0.250;2022-11-20T09:49:19;5.03;;;1.27;;
5961;SDS011;3007;50.770;0.250;2022-11-20T09:51:57;4.17;;;1.23;;
5961;SDS011;3007;50.770;0.250;2022-11-20T09:54:26;4.50;;;1.30;;
5961;SDS011;3007;50.770;0.250;2022-11-20T09:56:58;7.60;;;1.43;;
5961;SDS011;3007;50.770;0.250;2022-11-20T09:59:34;2.17;;;1.60;;
5961;SDS011;3007;50.770;0.250;2022-11-20T10:02:08;7.00;;;1.47;;
5961;SDS011;3007;50.770;0.250;2022-11-20T10:04:44;8.77;;;1.87;;
5961;SDS011;3007;50.770;0.250;2022-11-20T10:07:16;7.53;;;1.87;;
5961;SDS011;3007;50.770;0.250;2022-11-20T10:09:49;6.50;;;1.50;;
5961;SDS011;3007;50.770;0.250;2022-11-20T10:12:21;6.37;;;1.50;;
5961;SDS011;3007;50.770;0.250;2022-11-20T10:14:58;7.27;;;1.33;;
5961;SDS011;3007;50.770;0.250;2022-11-20T10:17:38;4.13;;;1.27;;
5961;SDS011;3007;50.770;0.250;2022-11-20T10:20:35;8.20;;;1.40;;
5961;SDS011;3007;50.770;0.250;2022-11-20T10:23:15;12.70;;;1.67;;
5961;SDS011;3007;50.770;0.250;2022-11-20T10:26:00;8.17;;;1.40;;
5961;SDS011;3007;50.770;0.250;2022-11-20T10:28:40;5.80;;;1.40;;
5961;SDS011;3007;50.770;0.250;2022-11-20T10:31:17;5.90;;;1.43;;
5961;SDS011;3007;50.770;0.250;2022-11-20T10:33:53;4.80;;;1.30;;
5961;SDS011;3007;50.770;0.250;2022-11-20T10:36:25;8.77;;;1.57;;
5961;SDS011;3007;50.770;0.250;2022-11-20T10:38:56;9.93;;;1.67;;
5961;SDS011;3007;50.770;0.250;2022-11-20T10:41:27;8.77;;;1.70;;
5961;SDS011;3007;50.770;0.250;2022-11-20T10:44:00;7.77;;;1.63;;
5961;SDS011;3007;50.770;0.250;2022-11-20T10:46:34;7.20;;;1.60;;
5961;SDS011;3007;50.770;0.250;2022-11-20T10:49:11;3.03;;;1.03;;
5961;SDS011;3007;50.770;0.250;2022-11-20T10:51:43;12.07;;;2.23;;
5961;SDS011;3007;50.770;0.250;2022-11-20T10:54:25;7.27;;;2.00;;
5961;SDS011;3007;50.770;0.250;2022-11-20T10:57:03;6.27;;;2.63;;
5961;SDS011;3007;50.770;0.250;2022-11-20T10:59:45;11.70;;;2.03;;
5961;SDS011;3007;50.770;0.250;2022-11-20T11:02:32;12.57;;;2.90;;
5961;SDS011;3007;50.770;0.250;2022-11-20T11:05:04;6.73;;;3.07;;
5961;SDS011;3007;50.770;0.250;2022-11-20T11:07:40;21.97;;;8.20;;
5961;SDS011;3007;50.770;0.250;2022-11-20T11:10:13;10.80;;;2.10;;
5961;SDS011;3007;50.770;0.250;2022-11-20T11:12:43;14.60;;;3.63;;
5961;SDS011;3007;50.770;0.250;2022-11-20T11:15:13;8.90;;;1.73;;
5961;SDS011;3007;50.770;0.250;2022-11-20T11:17:50;12.40;;;2.07;;
5961;SDS011;3007;50.770;0.250;2022-11-20T11:20:17;7.27;;;2.17;;
5961;SDS011;3007;50.770;0.250;2022-11-20T11:22:47;12.93;;;2.40;;
5961;SDS011;3007;50.770;0.250;2022-11-20T11:25:23;12.20;;;2.43;;
5961;SDS011;3007;50.770;0.250;2022-11-20T11:27:57;13.33;;;2.23;;
5961;SDS011;3007;50.770;0.250;2022-11-20T11:30:25;7.20;;;1.60;;
5961;SDS011;3007;50.770;0.250;2022-11-20T11:33:05;6.47;;;1.80;;
5961;SDS011;3007;50.770;0.250;2022-11-20T11:35:38;10.43;;;2.53;;
5961;SDS011;3007;50.770;0.250;2022-11-20T11:38:13;11.23;;;2.07;;
5961;SDS011;3007;50.770;0.250;2022-11-20T11:40:43;14.07;;;1.83;;
5961;SDS011;3007;50.770;0.250;2022-11-20T11:43:16;7.00;;;1.90;;
5961;SDS011;3007;50.770;0.250;2022-11-20T11:46:03;9.07;;;1.80;;
5961;SDS011;3007;50.770;0.250;2022-11-20T11:48:39;7.67;;;2.40;;
5961;SDS011;3007;50.770;0.250;2022-11-20T11:51:07;16.60;;;2.60;;
5961;SDS011;3007;50.770;0.250;2022-11-20T11:53:36;6.43;;;1.70;;
5961;SDS011;3007;50.770;0.250;2022-11-20T11:56:09;9.70;;;2.10;;
5961;SDS011;3007;50.770;0.250;2022-11-20T11:58:41;15.97;;;2.73;;
5961;SDS011;3007;50.770;0.250;2022-11-20T12:01:16;13.67;;;2.37;;
5961;SDS011;3007;50.770;0.250;2022-11-20T12:03:52;9.40;;;2.17;;
5961;SDS011;3007;50.770;0.250;2022-11-20T12:06:26;11.17;;;2.00;;
5961;SDS011;3007;50.770;0.250;2022-11-20T12:08:59;13.40;;;2.63;;
5961;SDS011;3007;50.770;0.250;2022-11-20T12:11:31;13.97;;;2.67;;
5961;SDS011;3007;50.770;0.250;2022-11-20T12:14:04;11.37;;;2.53;;
5961;SDS011;3007;50.770;0.250;2022-11-20T12:16:40;17.30;;;2.97;;
5961;SDS011;3007;50.770;0.250;2022-11-20T12:19:08;7.53;;;1.70;;
5961;SDS011;3007;50.770;0.250;2022-11-20T12:21:40;7.10;;;1.80;;
5961;SDS011;3007;50.770;0.250;2022-11-20T12:24:23;17.30;;;2.33;;
5961;SDS011;3007;50.770;0.250;2022-11-20T12:27:15;11.17;;;2.40;;
5961;SDS011;3007;50.770;0.250;2022-11-20T12:29:59;12.60;;;2.17;;
5961;SDS011;3007;50.770;0.250;2022-11-20T12:32:41;15.67;;;2.90;;
5961;SDS011;3007;50.770;0.250;2022-11-20T12:35:27;17.20;;;2.87;;
5961;SDS011;3007;50.770;0.250;2022-11-20T12:38:21;8.70;;;2.07;;
5961;SDS011;3007;50.770;0.250;2022-11-20T12:41:05;8.53;;;2.50;;
5961;SDS011;3007;50.770;0.250;2022-11-20T12:43:39;18.80;;;3.13;;
5961;SDS011;3007;50.770;0.250;2022-11-20T12:46:31;11.80;;;2.53;;
5961;SDS011;3007;50.770;0.250;2022-11-20T12:49:15;10.80;;;2.60;;
5961;SDS011;3007;50.770;0.250;2022-11-20T12:51:58;14.10;;;2.17;;
5961;SDS011;3007;50.770;0.250;2022-11-20T12:54:43;9.40;;;1.90;;
5961;SDS011;3007;50.770;0.250;2022-11-20T12:57:24;15.87;;;2.37;;
5961;SDS011;3007;50.770;0.250;2022-11-20T13:00:10;14.47;;;2.47;;
5961;SDS011;3007;50.770;0.250;2022-11-20T13:02:45;14.30;;;2.63;;
5961;SDS011;3007;50.770;0.250;2022-11-20T13:05:43;13.63;;;2.20;;
5961;SDS011;3007;50.770;0.250;2022-11-20T13:08:20;16.17;;;2.50;;
5961;SDS011;3007;50.770;0.250;2022-11-20T13:10:52;14.63;;;2.43;;
5961;SDS011;3007;50.770;0.250;2022-11-20T13:13:25;20.40;;;2.83;;
5961;SDS011;3007;50.770;0.250;2022-11-20T13:16:01;16.00;;;3.17;;
5961;SDS011;3007;50.770;0.250;2022-11-20T13:18:34;16.30;;;2.57;;
5961;SDS011;3007;50.770;0.250;2022-11-20T13:21:12;12.03;;;2.87;;
5961;SDS011;3007;50.770;0.250;2022-11-20T13:23:41;15.30;;;2.83;;
5961;SDS011;3007;50.770;0.250;2022-11-20T13:26:14;13.40;;;3.27;;
5961;SDS011;3007;50.770;0.250;2022-11-20T13:28:44;10.97;;;2.27;;
5961;SDS011;3007;50.770;0.250;2022-11-20T13:31:23;14.50;;;2.83;;
5961;SDS011;3007;50.770;0.250;2022-11-20T13:34:00;17.10;;;3.20;;
5961;SDS011;3007;50.770;0.250;2022-11-20T13:36:30;10.00;;;2.23;;
5961;SDS011;3007;50.770;0.250;2022-11-20T13:38:59;10.97;;;3.00;;
5961;SDS011;3007;50.770;0.250;2022-11-20T13:41:26;17.93;;;5.10;;
5961;SDS011;3007;50.770;0.250;2022-11-20T13:43:58;13.80;;;3.07;;
5961;SDS011;3007;50.770;0.250;2022-11-20T13:46:35;22.27;;;3.20;;
5961;SDS011;3007;50.770;0.250;2022-11-20T13:49:06;9.33;;;2.57;;
5961;SDS011;3007;50.770;0.250;2022-11-20T13:51:37;13.43;;;2.43;;
5961;SDS011;3007;50.770;0.250;2022-11-20T13:57:22;11.10;;;2.73;;
5961;SDS011;3007;50.770;0.250;2022-11-20T14:00:15;12.57;;;2.47;;
5961;SDS011;3007;50.770;0.250;2022-11-20T14:02:43;13.53;;;2.57;;
5961;SDS011;3007;50.770;0.250;2022-11-20T14:05:17;10.47;;;2.67;;
5961;SDS011;3007;50.770;0.250;2022-11-20T14:07:47;11.83;;;2.80;;
5961;SDS011;3007;50.770;0.250;2022-11-20T14:10:22;15.87;;;2.97;;
5961;SDS011;3007;50.770;0.250;2022-11-20T14:12:50;11.90;;;2.33;;
5961;SDS011;3007;50.770;0.250;2022-11-20T14:15:25;15.13;;;2.30;;
5961;SDS011;3007;50.770;0.250;2022-11-20T14:17:54;15.00;;;2.73;;
5961;SDS011;3007;50.770;0.250;2022-11-20T14:20:22;11.23;;;2.43;;
5961;SDS011;3007;50.770;0.250;2022-11-20T14:22:52;11.70;;;2.33;;
5961;SDS011;3007;50.770;0.250;2022-11-20T14:25:20;11.67;;;2.07;;
5961;SDS011;3007;50.770;0.250;2022-11-20T14:27:52;9.60;;;2.73;;
5961;SDS011;3007;50.770;0.250;2022-11-20T14:30:21;10.23;;;2.37;;
5961;SDS011;3007;50.770;0.250;2022-11-20T14:32:51;18.50;;;2.47;;
5961;SDS011;3007;50.770;0.250;2022-11-20T14:35:21;13.03;;;2.47;;
5961;SDS011;3007;50.770;0.250;2022-11-20T14:37:56;12.33;;;3.10;;
5961;SDS011;3007;50.770;0.250;2022-11-20T14:40:25;13.03;;;2.63;;
5961;SDS011;3007;50.770;0.250;2022-11-20T14:42:55;14.03;;;2.30;;
5961;SDS011;3007;50.770;0.250;2022-11-20T14:45:22;11.53;;;2.27;;
5961;SDS011;3007;50.770;0.250;2022-11-20T14:47:52;8.73;;;2.70;;
5961;SDS011;3007;50.770;0.250;2022-11-20T14:50:22;14.90;;;3.37;;
5961;SDS011;3007;50.770;0.250;2022-11-20T14:52:51;11.53;;;2.60;;
5961;SDS011;3007;50.770;0.250;2022-11-20T14:55:29;17.40;;;3.40;;
5961;SDS011;3007;50.770;0.250;2022-11-20T14:57:58;9.73;;;2.40;;
5961;SDS011;3007;50.770;0.250;2022-11-20T15:00:26;13.10;;;2.37;;
5961;SDS011;3007;50.770;0.250;2022-11-20T15:02:55;14.33;;;2.20;;
5961;SDS011;3007;50.770;0.250;2022-11-20T15:05:22;15.50;;;3.23;;
5961;SDS011;3007;50.770;0.250;2022-11-20T15:07:51;12.73;;;1.90;;
5961;SDS011;3007;50.770;0.250;2022-11-20T15:10:29;14.03;;;2.40;;
5961;SDS011;3007;50.770;0.250;2022-11-20T15:12:58;15.80;;;2.97;;
5961;SDS011;3007;50.770;0.250;2022-11-20T15:15:28;13.30;;;2.30;;
5961;SDS011;3007;50.770;0.250;2022-11-20T15:18:00;17.23;;;2.50;;
5961;SDS011;3007;50.770;0.250;2022-11-20T15:20:27;11.43;;;2.90;;
5961;SDS011;3007;50.770;0.250;2022-11-20T15:22:57;15.93;;;2.63;;
5961;SDS011;3007;50.770;0.250;2022-11-20T15:25:24;12.27;;;2.30;;
5961;SDS011;3007;50.770;0.250;2022-11-20T15:27:55;18.57;;;4.00;;
5961;SDS011;3007;50.770;0.250;2022-11-20T15:30:23;16.50;;;4.20;;
5961;SDS011;3007;50.770;0.250;2022-11-20T15:32:50;14.00;;;3.27;;
5961;SDS011;3007;50.770;0.250;2022-11-20T15:35:18;9.33;;;2.10;;